Contact Us:
Email: info@sawbill.com
Phone: (218)663-7150
Fax: (218)663-7980
Mail: 4620 Sawbill Trail
Box 2129
Tofte, MN 55615


Powered by
Movable Type 3.15
 
Sawbill Weather History Archives: June 2010
Current Sawbill Weather History | « May 2010 | July 2010 »


Date

High
Temperature

Low
Temperature

Barometric
Pressure

Relative
Humidity 7AM

9 AM
Temperature

Moisture

Snow

6/30/10 69 43 30.59 76% 52 .02"
6/29/10 63 42 30.56 77% 43 0
6/28/10 61 44 30.42 77% 46 0
6/27/10 74 52 30.03 87% 52 .68"
6/26/10 70 52 29.88 89% 58 0
6/25/10 62 51 30.21 89% 52 .21"
6/24/10 71 55 30.27 92% 58 .02"
6/23/10 76 54 30.33 71% 55 .11"
6/22/10 76 54 30.18 98% 61 0
6/21/10 75 58 30.21 98% 61 0
6/20/10 73 51 30.33 82% 58 0
6/19/10 66 52 30.12 90% 54 .03"
6/18/10 79 59 30.03 81% 60 0
6/17/10 73 54 30.03 77% 59 .11"
6/16/10 67 51 30.33 96% 54 0
6/15/10 60 56 30.27 98% 57 .12"
6/14/10 66 55 30.33 92% 56 0
6/13/10 61 54 30.33 98% 56 .09"
6/12/10 62 53 30.36 98% 56 0
6/11/10 56 52 30.39 98% 53 .66"
6/10/10 64 50 30.27 82% 53 0
6/9/10 58 48 30.27 98% 50 0
6/8/10 60 45 29.88 98% 52 .8"
6/7/10 66 42 30.30 81% 45 0
6/6/10 60 42 30.36 87% 47 0
6/5/10 58 48 30.15 97% 50 0
6/4/10 55 48 29.97 98% 48 .51"
6/3/10 71 56 30.00 82% 51 .04"
6/2/10 68 43 30.12 94% 46 0
6/1/10 66 47 30.09 95% 48 .03"
 


Home I Trip Planning I Rentals and Outfitting I Reservations I Campgrounds I Sawbill Store I Sawbill News I Contact

© 1997 - 2017, Sawbill Canoe Outfitters, Inc. I Privacy Policy